Tres Arroyos, Argentina
Current Conditions -  °F | °C
As of 12:00 PM on Tuesday 21 Oct 2014 (Local Time) from SAZM Reporting Station
Clear Clear  
Wind Chill: 23°   Ceiling: Unl
Heat Index: 23°   Visibility: 6mi
Dew Point: 11°   Wind: 25mph
Humidity: 47%   Direction: 340°NNW
Pressure: 29.97"   Gusts: 38mph
Location:  38.37°S, 60.27°W
Report Text: SAZM 211500Z 34022G33KT CAVOK 23/11 Q1015
Loading
Personal Weather Stations






























Interactive Weather Map
Tropical Storm Tracking
New forecast layout! Learn more

10-Day Weather Forecast

Advertisements
Track Severe Weather on mobile